Terminal Aerodrome Forecast
Issued by NWS

Home | Current Version | Previous Version | Text Only | Print | Product List | Glossary On
Versions: 1 2 3 4 5 6 7 8 9 10 11 12 13
000
FTUS43 KEAX 051700
TAFMKC
TAF
KMKC 051738Z 0518/0618 VRB05KT P6SM SKC
     FM060700 18009KT P6SM FEW150
     FM061500 22010KT P6SM SKC=

USA.gov is the U.S. government's official web portal to all federal, state and local government web resources and services.